Portada
METAR-TAF:

METAR-TAF

Aeroports :

Xarm al xeic, Egipte

latitud: 27-58N, longitud: 034-23E, altitud: 50 m

Observació

L'informe es va fer fa 59 minuts, a les 14:00 UTC
Vent 6 kt del Nord/Nord-Est
Temperatura 24°C
Humitat 44%
Pressió 1013 hPa
Visibilitat 10 km o més
Escasses núvols a una alçada de 2500 ft

METAR: HESH 051400Z 02006KT 9999 FEW025 24/11 Q1013 NOSIG

Hora: 16:59 (14:59 UTC)

Pronòstic

L'informe es va fer fa 3 hores i 59 minuts, a les 11:00 UTC
Pronòstic vàlid del 05 a les 12 UTC al 06 a les 18 UTC
Vent 12 kt del Nord/Nord-Est
Visibilitat 10 km o més
sense núvols per sota de 1500 mi sense presència de cumulonimbus.

TAF: HESH 051100Z 0512/0618 02012KT CAVOK

Observacions i pronòstics meteorològics de més de 4000 aeroports (METAR i TAF).

Les estacions disponibles són els punts grocs i vermells al mapa.

Posi el ratolí al punt desitjat per veure el nom de l'estació.

Feu clic per veure les observacions i els pronòstics meteorològics.

Per canviar el mapa: feu clic els botons verds amb una creu de color negre per apropar; al botó verd amb un guió per allunyar la imatge; o en les fletxes verdes per a mapes adjacents.


METAR-TAF: